sensor_id;sensor_type;location;lat;lon;timestamp;temperature;humidity
67005;HTU21D;53920;51.094;5.902;2022-07-29T00:02:12;21.39;46.78
67005;HTU21D;53920;51.094;5.902;2022-07-29T00:04:38;21.34;46.86
67005;HTU21D;53920;51.094;5.902;2022-07-29T00:07:04;21.32;46.56
67005;HTU21D;53920;51.094;5.902;2022-07-29T00:09:31;21.37;46.18
67005;HTU21D;53920;51.094;5.902;2022-07-29T00:11:59;21.31;46.29
67005;HTU21D;53920;51.094;5.902;2022-07-29T00:14:26;21.28;46.09
67005;HTU21D;53920;51.094;5.902;2022-07-29T00:16:52;21.29;46.26
67005;HTU21D;53920;51.094;5.902;2022-07-29T00:19:18;21.30;46.23
67005;HTU21D;53920;51.094;5.902;2022-07-29T00:21:44;21.31;46.59
67005;HTU21D;53920;51.094;5.902;2022-07-29T00:24:10;21.32;45.89
67005;HTU21D;53920;51.094;5.902;2022-07-29T00:26:36;21.35;45.11
67005;HTU21D;53920;51.094;5.902;2022-07-29T00:29:04;21.38;44.54
67005;HTU21D;53920;51.094;5.902;2022-07-29T00:31:30;21.39;44.04
67005;HTU21D;53920;51.094;5.902;2022-07-29T00:33:57;21.38;43.84
67005;HTU21D;53920;51.094;5.902;2022-07-29T00:36:23;21.39;44.00
67005;HTU21D;53920;51.094;5.902;2022-07-29T00:38:50;21.33;45.03
67005;HTU21D;53920;51.094;5.902;2022-07-29T00:41:17;21.24;46.07
67005;HTU21D;53920;51.094;5.902;2022-07-29T00:43:43;21.14;46.66
67005;HTU21D;53920;51.094;5.902;2022-07-29T00:46:11;21.08;46.96
67005;HTU21D;53920;51.094;5.902;2022-07-29T00:48:37;21.07;47.18
67005;HTU21D;53920;51.094;5.902;2022-07-29T00:51:05;21.13;47.40
67005;HTU21D;53920;51.094;5.902;2022-07-29T00:53:32;21.11;47.89
67005;HTU21D;53920;51.094;5.902;2022-07-29T00:55:58;21.09;49.94
67005;HTU21D;53920;51.094;5.902;2022-07-29T00:58:24;20.96;53.21
67005;HTU21D;53920;51.094;5.902;2022-07-29T01:00:52;20.77;54.55
67005;HTU21D;53920;51.094;5.902;2022-07-29T01:03:18;20.56;56.39
67005;HTU21D;53920;51.094;5.902;2022-07-29T01:05:45;20.37;57.35
67005;HTU21D;53920;51.094;5.902;2022-07-29T01:08:14;20.26;58.16
67005;HTU21D;53920;51.094;5.902;2022-07-29T01:10:43;20.17;59.06
67005;HTU21D;53920;51.094;5.902;2022-07-29T01:13:11;20.06;59.59
67005;HTU21D;53920;51.094;5.902;2022-07-29T01:15:44;20.02;59.46
67005;HTU21D;53920;51.094;5.902;2022-07-29T01:18:18;19.99;60.89
67005;HTU21D;53920;51.094;5.902;2022-07-29T01:31:56;19.10;66.43
67005;HTU21D;53920;51.094;5.902;2022-07-29T01:35:03;18.79;69.15
67005;HTU21D;53920;51.094;5.902;2022-07-29T01:37:48;18.51;70.08
67005;HTU21D;53920;51.094;5.902;2022-07-29T01:40:19;18.29;70.57
67005;HTU21D;53920;51.094;5.902;2022-07-29T01:42:58;18.13;71.10
67005;HTU21D;53920;51.094;5.902;2022-07-29T01:45:38;18.05;71.38
67005;HTU21D;53920;51.094;5.902;2022-07-29T01:48:17;17.93;71.08
67005;HTU21D;53920;51.094;5.902;2022-07-29T01:51:02;17.80;71.10
67005;HTU21D;53920;51.094;5.902;2022-07-29T01:53:38;17.74;71.52
67005;HTU21D;53920;51.094;5.902;2022-07-29T01:56:09;17.65;72.00
67005;HTU21D;53920;51.094;5.902;2022-07-29T01:58:40;17.60;72.95
67005;HTU21D;53920;51.094;5.902;2022-07-29T02:01:09;17.52;73.97
67005;HTU21D;53920;51.094;5.902;2022-07-29T02:03:39;17.48;74.46
67005;HTU21D;53920;51.094;5.902;2022-07-29T02:06:09;17.45;75.00
67005;HTU21D;53920;51.094;5.902;2022-07-29T02:08:39;17.43;75.57
67005;HTU21D;53920;51.094;5.902;2022-07-29T02:11:08;17.40;75.64
67005;HTU21D;53920;51.094;5.902;2022-07-29T02:13:36;17.39;74.98
67005;HTU21D;53920;51.094;5.902;2022-07-29T02:16:06;17.36;75.08
67005;HTU21D;53920;51.094;5.902;2022-07-29T02:18:37;17.35;75.18
67005;HTU21D;53920;51.094;5.902;2022-07-29T02:21:05;17.31;74.86
67005;HTU21D;53920;51.094;5.902;2022-07-29T02:23:33;17.26;75.41
67005;HTU21D;53920;51.094;5.902;2022-07-29T02:26:01;17.30;75.87
67005;HTU21D;53920;51.094;5.902;2022-07-29T02:28:29;17.30;75.83
67005;HTU21D;53920;51.094;5.902;2022-07-29T02:31:00;17.29;75.51
67005;HTU21D;53920;51.094;5.902;2022-07-29T02:33:30;17.30;76.03
67005;HTU21D;53920;51.094;5.902;2022-07-29T02:35:59;17.31;76.20
67005;HTU21D;53920;51.094;5.902;2022-07-29T02:38:28;17.32;75.83
67005;HTU21D;53920;51.094;5.902;2022-07-29T02:41:19;17.33;75.70
67005;HTU21D;53920;51.094;5.902;2022-07-29T02:43:48;17.37;75.70
67005;HTU21D;53920;51.094;5.902;2022-07-29T02:46:21;17.40;74.96
67005;HTU21D;53920;51.094;5.902;2022-07-29T02:52:24;17.39;75.62
67005;HTU21D;53920;51.094;5.902;2022-07-29T02:54:44;17.48;76.48
67005;HTU21D;53920;51.094;5.902;2022-07-29T02:59:52;17.64;76.85
67005;HTU21D;53920;51.094;5.902;2022-07-29T03:02:21;17.69;76.21
67005;HTU21D;53920;51.094;5.902;2022-07-29T03:04:48;17.72;75.34
67005;HTU21D;53920;51.094;5.902;2022-07-29T03:07:18;17.75;74.25
67005;HTU21D;53920;51.094;5.902;2022-07-29T03:09:46;17.72;73.62
67005;HTU21D;53920;51.094;5.902;2022-07-29T03:12:14;17.73;73.87
67005;HTU21D;53920;51.094;5.902;2022-07-29T03:14:41;17.77;74.72
67005;HTU21D;53920;51.094;5.902;2022-07-29T03:17:09;17.82;74.73
67005;HTU21D;53920;51.094;5.902;2022-07-29T03:19:36;17.83;74.60
67005;HTU21D;53920;51.094;5.902;2022-07-29T03:22:03;17.88;75.08
67005;HTU21D;53920;51.094;5.902;2022-07-29T03:24:35;17.88;75.66
67005;HTU21D;53920;51.094;5.902;2022-07-29T03:27:03;17.88;75.34
67005;HTU21D;53920;51.094;5.902;2022-07-29T03:29:29;17.88;75.31
67005;HTU21D;53920;51.094;5.902;2022-07-29T03:31:56;17.88;75.74
67005;HTU21D;53920;51.094;5.902;2022-07-29T03:34:21;17.89;75.50
67005;HTU21D;53920;51.094;5.902;2022-07-29T03:36:48;17.91;74.80
67005;HTU21D;53920;51.094;5.902;2022-07-29T03:39:20;17.92;74.84
67005;HTU21D;53920;51.094;5.902;2022-07-29T03:41:49;17.89;74.38
67005;HTU21D;53920;51.094;5.902;2022-07-29T03:44:19;17.77;74.25
67005;HTU21D;53920;51.094;5.902;2022-07-29T03:46:49;17.66;74.62
67005;HTU21D;53920;51.094;5.902;2022-07-29T03:49:18;17.52;74.44
67005;HTU21D;53920;51.094;5.902;2022-07-29T03:51:46;17.54;74.48
67005;HTU21D;53920;51.094;5.902;2022-07-29T03:54:12;17.61;74.54
67005;HTU21D;53920;51.094;5.902;2022-07-29T03:56:42;17.66;74.29
67005;HTU21D;53920;51.094;5.902;2022-07-29T03:59:13;17.68;74.34
67005;HTU21D;53920;51.094;5.902;2022-07-29T04:01:40;17.67;74.41
67005;HTU21D;53920;51.094;5.902;2022-07-29T04:04:07;17.68;75.05
67005;HTU21D;53920;51.094;5.902;2022-07-29T04:06:44;17.70;75.62
67005;HTU21D;53920;51.094;5.902;2022-07-29T04:09:10;17.73;75.99
67005;HTU21D;53920;51.094;5.902;2022-07-29T04:11:38;17.76;76.05
67005;HTU21D;53920;51.094;5.902;2022-07-29T04:14:04;17.79;75.35
67005;HTU21D;53920;51.094;5.902;2022-07-29T04:16:31;17.80;74.47
67005;HTU21D;53920;51.094;5.902;2022-07-29T04:18:57;17.79;74.09
67005;HTU21D;53920;51.094;5.902;2022-07-29T04:21:23;17.76;74.32
67005;HTU21D;53920;51.094;5.902;2022-07-29T04:23:49;17.76;75.46
67005;HTU21D;53920;51.094;5.902;2022-07-29T04:26:17;17.80;76.40
67005;HTU21D;53920;51.094;5.902;2022-07-29T04:28:43;17.83;75.74
67005;HTU21D;53920;51.094;5.902;2022-07-29T04:31:10;17.91;75.82
67005;HTU21D;53920;51.094;5.902;2022-07-29T04:33:36;17.93;75.49
67005;HTU21D;53920;51.094;5.902;2022-07-29T04:36:02;17.98;74.46
67005;HTU21D;53920;51.094;5.902;2022-07-29T04:38:28;18.05;74.55
67005;HTU21D;53920;51.094;5.902;2022-07-29T04:40:54;18.12;74.98
67005;HTU21D;53920;51.094;5.902;2022-07-29T04:43:19;18.15;75.38
67005;HTU21D;53920;51.094;5.902;2022-07-29T04:45:45;18.17;75.57
67005;HTU21D;53920;51.094;5.902;2022-07-29T04:48:11;18.18;74.57
67005;HTU21D;53920;51.094;5.902;2022-07-29T04:50:40;18.12;74.38
67005;HTU21D;53920;51.094;5.902;2022-07-29T04:53:07;18.06;74.85
67005;HTU21D;53920;51.094;5.902;2022-07-29T04:55:33;18.02;74.73
67005;HTU21D;53920;51.094;5.902;2022-07-29T04:57:59;17.99;74.62
67005;HTU21D;53920;51.094;5.902;2022-07-29T05:00:26;17.96;74.70
67005;HTU21D;53920;51.094;5.902;2022-07-29T05:02:51;18.02;75.25
67005;HTU21D;53920;51.094;5.902;2022-07-29T05:05:17;18.11;75.58
67005;HTU21D;53920;51.094;5.902;2022-07-29T05:07:43;18.17;74.69
67005;HTU21D;53920;51.094;5.902;2022-07-29T05:10:09;18.22;75.12
67005;HTU21D;53920;51.094;5.902;2022-07-29T05:12:35;18.26;74.79
67005;HTU21D;53920;51.094;5.902;2022-07-29T05:15:01;18.28;74.54
67005;HTU21D;53920;51.094;5.902;2022-07-29T05:17:27;18.37;74.09
67005;HTU21D;53920;51.094;5.902;2022-07-29T05:19:53;18.43;73.55
67005;HTU21D;53920;51.094;5.902;2022-07-29T05:22:20;18.48;73.93
67005;HTU21D;53920;51.094;5.902;2022-07-29T05:24:46;18.53;74.54
67005;HTU21D;53920;51.094;5.902;2022-07-29T05:27:13;18.58;74.89
67005;HTU21D;53920;51.094;5.902;2022-07-29T05:29:39;18.65;74.60
67005;HTU21D;53920;51.094;5.902;2022-07-29T05:32:05;18.68;74.61
67005;HTU21D;53920;51.094;5.902;2022-07-29T05:34:31;18.77;74.38
67005;HTU21D;53920;51.094;5.902;2022-07-29T05:36:57;18.86;73.83
67005;HTU21D;53920;51.094;5.902;2022-07-29T05:39:23;18.96;72.99
67005;HTU21D;53920;51.094;5.902;2022-07-29T05:41:49;19.06;72.64
67005;HTU21D;53920;51.094;5.902;2022-07-29T05:44:15;19.02;72.39
67005;HTU21D;53920;51.094;5.902;2022-07-29T05:46:41;19.06;72.00
67005;HTU21D;53920;51.094;5.902;2022-07-29T05:49:07;19.08;72.33
67005;HTU21D;53920;51.094;5.902;2022-07-29T05:51:34;19.17;72.92
67005;HTU21D;53920;51.094;5.902;2022-07-29T05:54:00;19.28;72.91
67005;HTU21D;53920;51.094;5.902;2022-07-29T05:56:26;19.33;72.11
67005;HTU21D;53920;51.094;5.902;2022-07-29T05:58:52;19.41;71.73
67005;HTU21D;53920;51.094;5.902;2022-07-29T06:01:18;19.35;71.53
67005;HTU21D;53920;51.094;5.902;2022-07-29T06:03:44;19.20;71.70
67005;HTU21D;53920;51.094;5.902;2022-07-29T06:06:10;19.08;72.09
67005;HTU21D;53920;51.094;5.902;2022-07-29T06:08:36;19.06;72.14
67005;HTU21D;53920;51.094;5.902;2022-07-29T06:11:04;19.15;72.06
67005;HTU21D;53920;51.094;5.902;2022-07-29T06:13:30;19.16;71.84
67005;HTU21D;53920;51.094;5.902;2022-07-29T06:15:57;19.10;71.95
67005;HTU21D;53920;51.094;5.902;2022-07-29T06:18:23;19.11;72.55
67005;HTU21D;53920;51.094;5.902;2022-07-29T06:20:52;19.18;72.12
67005;HTU21D;53920;51.094;5.902;2022-07-29T06:23:19;19.15;71.67
67005;HTU21D;53920;51.094;5.902;2022-07-29T06:25:46;19.07;71.63
67005;HTU21D;53920;51.094;5.902;2022-07-29T06:28:12;19.13;72.41
67005;HTU21D;53920;51.094;5.902;2022-07-29T06:30:39;19.10;71.80
67005;HTU21D;53920;51.094;5.902;2022-07-29T06:33:05;19.10;72.17
67005;HTU21D;53920;51.094;5.902;2022-07-29T06:35:35;19.05;71.84
67005;HTU21D;53920;51.094;5.902;2022-07-29T06:38:04;19.00;71.76
67005;HTU21D;53920;51.094;5.902;2022-07-29T06:40:30;19.01;71.31
67005;HTU21D;53920;51.094;5.902;2022-07-29T06:43:15;19.05;72.00
67005;HTU21D;53920;51.094;5.902;2022-07-29T06:45:41;19.10;71.60
67005;HTU21D;53920;51.094;5.902;2022-07-29T06:48:09;19.16;71.63
67005;HTU21D;53920;51.094;5.902;2022-07-29T06:50:35;19.18;72.81
67005;HTU21D;53920;51.094;5.902;2022-07-29T06:53:01;19.25;73.00
67005;HTU21D;53920;51.094;5.902;2022-07-29T06:55:27;19.26;73.42
67005;HTU21D;53920;51.094;5.902;2022-07-29T06:57:52;19.29;74.06
67005;HTU21D;53920;51.094;5.902;2022-07-29T07:00:18;19.32;74.25
67005;HTU21D;53920;51.094;5.902;2022-07-29T07:02:44;19.30;74.57
67005;HTU21D;53920;51.094;5.902;2022-07-29T07:05:10;19.37;74.16
67005;HTU21D;53920;51.094;5.902;2022-07-29T07:07:36;19.35;74.18
67005;HTU21D;53920;51.094;5.902;2022-07-29T07:10:02;19.31;74.63
67005;HTU21D;53920;51.094;5.902;2022-07-29T07:12:28;19.35;74.37
67005;HTU21D;53920;51.094;5.902;2022-07-29T07:14:54;19.42;73.48
67005;HTU21D;53920;51.094;5.902;2022-07-29T07:17:20;19.50;73.03
67005;HTU21D;53920;51.094;5.902;2022-07-29T07:19:46;19.58;72.98
67005;HTU21D;53920;51.094;5.902;2022-07-29T07:22:12;19.66;72.60
67005;HTU21D;53920;51.094;5.902;2022-07-29T07:24:38;19.73;72.91
67005;HTU21D;53920;51.094;5.902;2022-07-29T07:27:04;19.76;71.78
67005;HTU21D;53920;51.094;5.902;2022-07-29T07:29:30;19.84;70.59
67005;HTU21D;53920;51.094;5.902;2022-07-29T07:31:57;19.95;70.27
67005;HTU21D;53920;51.094;5.902;2022-07-29T07:34:23;20.36;69.29
67005;HTU21D;53920;51.094;5.902;2022-07-29T07:36:49;21.75;65.85
67005;HTU21D;53920;51.094;5.902;2022-07-29T07:39:15;24.05;59.61
67005;HTU21D;53920;51.094;5.902;2022-07-29T07:41:41;25.54;53.75
67005;HTU21D;53920;51.094;5.902;2022-07-29T07:44:07;26.16;51.28
67005;HTU21D;53920;51.094;5.902;2022-07-29T07:46:33;25.43;52.13
67005;HTU21D;53920;51.094;5.902;2022-07-29T07:48:58;24.73;53.91
67005;HTU21D;53920;51.094;5.902;2022-07-29T07:51:25;24.21;55.42
67005;HTU21D;53920;51.094;5.902;2022-07-29T07:53:50;23.76;55.61
67005;HTU21D;53920;51.094;5.902;2022-07-29T07:56:16;24.66;53.95
67005;HTU21D;53920;51.094;5.902;2022-07-29T07:58:43;25.64;51.66
67005;HTU21D;53920;51.094;5.902;2022-07-29T08:01:09;25.45;51.30
67005;HTU21D;53920;51.094;5.902;2022-07-29T08:03:35;25.07;50.69
67005;HTU21D;53920;51.094;5.902;2022-07-29T08:06:02;24.95;52.14
67005;HTU21D;53920;51.094;5.902;2022-07-29T08:08:29;24.87;52.87
67005;HTU21D;53920;51.094;5.902;2022-07-29T08:10:55;25.48;52.10
67005;HTU21D;53920;51.094;5.902;2022-07-29T08:13:23;26.41;49.59
67005;HTU21D;53920;51.094;5.902;2022-07-29T08:15:51;26.80;48.28
67005;HTU21D;53920;51.094;5.902;2022-07-29T08:18:28;28.45;43.18
67005;HTU21D;53920;51.094;5.902;2022-07-29T08:20:55;29.03;40.77
67005;HTU21D;53920;51.094;5.902;2022-07-29T08:23:21;28.24;41.83
67005;HTU21D;53920;51.094;5.902;2022-07-29T08:25:49;27.19;45.03
67005;HTU21D;53920;51.094;5.902;2022-07-29T08:28:16;27.89;43.87
67005;HTU21D;53920;51.094;5.902;2022-07-29T08:30:42;28.83;41.24
67005;HTU21D;53920;51.094;5.902;2022-07-29T08:33:08;29.20;39.70
67005;HTU21D;53920;51.094;5.902;2022-07-29T08:35:34;28.59;41.42
67005;HTU21D;53920;51.094;5.902;2022-07-29T08:38:00;27.63;44.13
67005;HTU21D;53920;51.094;5.902;2022-07-29T08:40:26;26.69;46.43
67005;HTU21D;53920;51.094;5.902;2022-07-29T08:42:52;25.90;47.38
67005;HTU21D;53920;51.094;5.902;2022-07-29T08:45:18;25.69;49.68
67005;HTU21D;53920;51.094;5.902;2022-07-29T08:47:44;26.27;48.21
67005;HTU21D;53920;51.094;5.902;2022-07-29T08:50:11;26.97;45.90
67005;HTU21D;53920;51.094;5.902;2022-07-29T08:52:39;27.89;43.29
67005;HTU21D;53920;51.094;5.902;2022-07-29T08:55:08;28.46;42.22
67005;HTU21D;53920;51.094;5.902;2022-07-29T08:57:35;28.14;42.05
67005;HTU21D;53920;51.094;5.902;2022-07-29T09:00:05;27.70;44.76
67005;HTU21D;53920;51.094;5.902;2022-07-29T09:02:38;27.73;43.32
67005;HTU21D;53920;51.094;5.902;2022-07-29T09:05:05;28.49;42.42
67005;HTU21D;53920;51.094;5.902;2022-07-29T09:07:32;28.83;42.02
67005;HTU21D;53920;51.094;5.902;2022-07-29T09:09:59;28.17;43.23
67005;HTU21D;53920;51.094;5.902;2022-07-29T09:12:26;27.59;44.34
67005;HTU21D;53920;51.094;5.902;2022-07-29T09:14:52;27.45;43.39
67005;HTU21D;53920;51.094;5.902;2022-07-29T09:17:42;28.34;42.64
67005;HTU21D;53920;51.094;5.902;2022-07-29T09:20:14;29.51;40.75
67005;HTU21D;53920;51.094;5.902;2022-07-29T09:22:40;30.60;38.20
67005;HTU21D;53920;51.094;5.902;2022-07-29T09:25:06;30.91;37.92
67005;HTU21D;53920;51.094;5.902;2022-07-29T09:27:32;30.09;38.75
67005;HTU21D;53920;51.094;5.902;2022-07-29T09:32:28;28.34;43.20
67005;HTU21D;53920;51.094;5.902;2022-07-29T09:35:13;28.59;42.17
67005;HTU21D;53920;51.094;5.902;2022-07-29T09:37:39;28.99;40.55
67005;HTU21D;53920;51.094;5.902;2022-07-29T09:40:13;29.13;41.31
67005;HTU21D;53920;51.094;5.902;2022-07-29T09:42:41;29.41;40.76
67005;HTU21D;53920;51.094;5.902;2022-07-29T09:45:08;29.45;39.84
67005;HTU21D;53920;51.094;5.902;2022-07-29T09:47:43;30.37;38.47
67005;HTU21D;53920;51.094;5.902;2022-07-29T09:50:11;31.01;36.73
67005;HTU21D;53920;51.094;5.902;2022-07-29T09:52:51;30.74;36.96
67005;HTU21D;53920;51.094;5.902;2022-07-29T09:55:19;30.06;37.80
67005;HTU21D;53920;51.094;5.902;2022-07-29T09:57:47;30.25;37.68
67005;HTU21D;53920;51.094;5.902;2022-07-29T10:00:18;30.38;37.91
67005;HTU21D;53920;51.094;5.902;2022-07-29T10:02:46;30.36;38.17
67005;HTU21D;53920;51.094;5.902;2022-07-29T10:05:26;29.94;38.74
67005;HTU21D;53920;51.094;5.902;2022-07-29T10:07:56;29.98;38.65
67005;HTU21D;53920;51.094;5.902;2022-07-29T10:10:34;31.08;35.50
67005;HTU21D;53920;51.094;5.902;2022-07-29T10:15:36;33.14;31.90
67005;HTU21D;53920;51.094;5.902;2022-07-29T10:18:05;32.79;31.67
67005;HTU21D;53920;51.094;5.902;2022-07-29T10:20:31;33.08;31.58
67005;HTU21D;53920;51.094;5.902;2022-07-29T10:22:57;34.08;29.90
67005;HTU21D;53920;51.094;5.902;2022-07-29T10:25:24;34.48;28.45
67005;HTU21D;53920;51.094;5.902;2022-07-29T10:27:51;34.35;28.93
67005;HTU21D;53920;51.094;5.902;2022-07-29T10:30:19;34.70;28.03
67005;HTU21D;53920;51.094;5.902;2022-07-29T10:33:47;34.65;27.77
67005;HTU21D;53920;51.094;5.902;2022-07-29T10:43:59;33.70;30.19
67005;HTU21D;53920;51.094;5.902;2022-07-29T10:46:27;34.15;29.18
67005;HTU21D;53920;51.094;5.902;2022-07-29T10:49:17;34.65;28.26
67005;HTU21D;53920;51.094;5.902;2022-07-29T10:55:01;34.31;27.59
67005;HTU21D;53920;51.094;5.902;2022-07-29T10:57:20;34.59;27.10
67005;HTU21D;53920;51.094;5.902;2022-07-29T11:02:41;35.11;26.15
67005;HTU21D;53920;51.094;5.902;2022-07-29T11:05:16;35.47;25.91
67005;HTU21D;53920;51.094;5.902;2022-07-29T11:10:38;35.51;27.14
67005;HTU21D;53920;51.094;5.902;2022-07-29T11:13:04;35.81;26.00
67005;HTU21D;53920;51.094;5.902;2022-07-29T11:15:56;36.16;25.27
67005;HTU21D;53920;51.094;5.902;2022-07-29T11:18:23;36.60;25.17
67005;HTU21D;53920;51.094;5.902;2022-07-29T11:20:51;36.90;24.49
67005;HTU21D;53920;51.094;5.902;2022-07-29T11:29:16;37.33;24.12
67005;HTU21D;53920;51.094;5.902;2022-07-29T11:31:46;37.06;24.04
67005;HTU21D;53920;51.094;5.902;2022-07-29T11:34:29;36.77;24.24
67005;HTU21D;53920;51.094;5.902;2022-07-29T11:39:41;36.40;24.78
67005;HTU21D;53920;51.094;5.902;2022-07-29T11:44:59;36.64;24.14
67005;HTU21D;53920;51.094;5.902;2022-07-29T11:47:39;36.61;24.62
67005;HTU21D;53920;51.094;5.902;2022-07-29T11:50:13;36.73;25.02
67005;HTU21D;53920;51.094;5.902;2022-07-29T11:52:44;36.63;24.58
67005;HTU21D;53920;51.094;5.902;2022-07-29T11:55:18;36.55;25.15
67005;HTU21D;53920;51.094;5.902;2022-07-29T11:57:49;36.51;24.77
67005;HTU21D;53920;51.094;5.902;2022-07-29T12:00:33;36.75;24.46
67005;HTU21D;53920;51.094;5.902;2022-07-29T12:03:03;36.80;24.72
67005;HTU21D;53920;51.094;5.902;2022-07-29T12:05:43;36.85;24.11
67005;HTU21D;53920;51.094;5.902;2022-07-29T12:08:19;36.75;24.42
67005;HTU21D;53920;51.094;5.902;2022-07-29T12:10:49;36.76;23.95
67005;HTU21D;53920;51.094;5.902;2022-07-29T12:13:18;36.54;24.69
67005;HTU21D;53920;51.094;5.902;2022-07-29T12:15:55;36.55;24.83
67005;HTU21D;53920;51.094;5.902;2022-07-29T12:18:23;36.49;24.94
67005;HTU21D;53920;51.094;5.902;2022-07-29T12:20:59;36.43;25.39
67005;HTU21D;53920;51.094;5.902;2022-07-29T12:23:25;36.47;24.76
67005;HTU21D;53920;51.094;5.902;2022-07-29T12:25:51;36.54;25.16
67005;HTU21D;53920;51.094;5.902;2022-07-29T12:28:17;36.27;24.69
67005;HTU21D;53920;51.094;5.902;2022-07-29T12:30:47;36.17;25.30
67005;HTU21D;53920;51.094;5.902;2022-07-29T12:33:22;36.28;25.38
67005;HTU21D;53920;51.094;5.902;2022-07-29T12:35:54;36.25;25.53
67005;HTU21D;53920;51.094;5.902;2022-07-29T12:38:22;36.42;24.90
67005;HTU21D;53920;51.094;5.902;2022-07-29T12:40:49;36.18;24.97
67005;HTU21D;53920;51.094;5.902;2022-07-29T12:43:21;36.44;25.83
67005;HTU21D;53920;51.094;5.902;2022-07-29T12:45:53;36.43;25.07
67005;HTU21D;53920;51.094;5.902;2022-07-29T12:48:36;36.53;24.86
67005;HTU21D;53920;51.094;5.902;2022-07-29T12:51:04;36.33;24.72
67005;HTU21D;53920;51.094;5.902;2022-07-29T12:53:32;35.90;25.26
67005;HTU21D;53920;51.094;5.902;2022-07-29T12:55:59;35.88;25.51
67005;HTU21D;53920;51.094;5.902;2022-07-29T12:58:39;35.67;26.31
67005;HTU21D;53920;51.094;5.902;2022-07-29T13:01:06;35.48;27.26
67005;HTU21D;53920;51.094;5.902;2022-07-29T13:06:40;35.97;25.56
67005;HTU21D;53920;51.094;5.902;2022-07-29T13:11:46;36.07;23.61
67005;HTU21D;53920;51.094;5.902;2022-07-29T13:14:29;36.25;22.41
67005;HTU21D;53920;51.094;5.902;2022-07-29T13:17:04;35.58;23.48
67005;HTU21D;53920;51.094;5.902;2022-07-29T13:19:35;34.68;26.17
67005;HTU21D;53920;51.094;5.902;2022-07-29T13:22:01;33.95;28.46
67005;HTU21D;53920;51.094;5.902;2022-07-29T13:24:27;32.98;30.08
67005;HTU21D;53920;51.094;5.902;2022-07-29T13:26:53;31.96;32.02
67005;HTU21D;53920;51.094;5.902;2022-07-29T13:29:19;31.10;33.38
67005;HTU21D;53920;51.094;5.902;2022-07-29T13:31:45;31.15;33.68
67005;HTU21D;53920;51.094;5.902;2022-07-29T13:34:11;31.74;31.66
67005;HTU21D;53920;51.094;5.902;2022-07-29T13:36:37;32.41;30.03
67005;HTU21D;53920;51.094;5.902;2022-07-29T13:39:04;32.94;28.10
67005;HTU21D;53920;51.094;5.902;2022-07-29T13:41:30;33.40;28.16
67005;HTU21D;53920;51.094;5.902;2022-07-29T13:43:56;33.76;27.37
67005;HTU21D;53920;51.094;5.902;2022-07-29T13:46:22;34.02;26.78
67005;HTU21D;53920;51.094;5.902;2022-07-29T13:48:48;34.20;26.75
67005;HTU21D;53920;51.094;5.902;2022-07-29T13:51:13;34.47;26.23
67005;HTU21D;53920;51.094;5.902;2022-07-29T13:53:39;34.79;24.39
67005;HTU21D;53920;51.094;5.902;2022-07-29T13:56:05;34.97;25.12
67005;HTU21D;53920;51.094;5.902;2022-07-29T13:58:32;35.09;25.77
67005;HTU21D;53920;51.094;5.902;2022-07-29T14:00:59;34.55;27.14
67005;HTU21D;53920;51.094;5.902;2022-07-29T14:03:25;33.77;28.38
67005;HTU21D;53920;51.094;5.902;2022-07-29T14:05:51;33.04;29.31
67005;HTU21D;53920;51.094;5.902;2022-07-29T14:08:17;32.70;29.52
67005;HTU21D;53920;51.094;5.902;2022-07-29T14:10:44;33.22;28.27
67005;HTU21D;53920;51.094;5.902;2022-07-29T14:13:10;33.55;29.06
67005;HTU21D;53920;51.094;5.902;2022-07-29T14:15:36;33.67;28.30
67005;HTU21D;53920;51.094;5.902;2022-07-29T14:18:02;33.60;28.23
67005;HTU21D;53920;51.094;5.902;2022-07-29T14:20:28;33.38;29.08
67005;HTU21D;53920;51.094;5.902;2022-07-29T14:22:55;33.28;28.21
67005;HTU21D;53920;51.094;5.902;2022-07-29T14:25:23;33.32;27.75
67005;HTU21D;53920;51.094;5.902;2022-07-29T14:27:49;33.18;27.81
67005;HTU21D;53920;51.094;5.902;2022-07-29T14:30:15;33.37;28.10
67005;HTU21D;53920;51.094;5.902;2022-07-29T14:32:41;33.62;27.29
67005;HTU21D;53920;51.094;5.902;2022-07-29T14:35:07;33.66;27.10
67005;HTU21D;53920;51.094;5.902;2022-07-29T14:37:33;33.81;27.05
67005;HTU21D;53920;51.094;5.902;2022-07-29T14:40:02;34.03;26.89
67005;HTU21D;53920;51.094;5.902;2022-07-29T14:42:30;34.10;26.74
67005;HTU21D;53920;51.094;5.902;2022-07-29T14:44:57;33.77;25.58
67005;HTU21D;53920;51.094;5.902;2022-07-29T14:47:23;33.32;26.14
67005;HTU21D;53920;51.094;5.902;2022-07-29T14:49:49;33.01;26.56
67005;HTU21D;53920;51.094;5.902;2022-07-29T14:52:15;32.93;26.99
67005;HTU21D;53920;51.094;5.902;2022-07-29T14:54:41;32.83;26.87
67005;HTU21D;53920;51.094;5.902;2022-07-29T14:57:07;32.75;27.01
67005;HTU21D;53920;51.094;5.902;2022-07-29T14:59:34;32.47;26.91
67005;HTU21D;53920;51.094;5.902;2022-07-29T15:02:00;32.07;27.22
67005;HTU21D;53920;51.094;5.902;2022-07-29T15:04:26;31.98;28.97
67005;HTU21D;53920;51.094;5.902;2022-07-29T15:06:52;31.98;29.69
67005;HTU21D;53920;51.094;5.902;2022-07-29T15:09:18;31.86;29.81
67005;HTU21D;53920;51.094;5.902;2022-07-29T15:11:44;31.61;30.29
67005;HTU21D;53920;51.094;5.902;2022-07-29T15:14:10;31.28;30.92
67005;HTU21D;53920;51.094;5.902;2022-07-29T15:16:37;30.93;31.07
67005;HTU21D;53920;51.094;5.902;2022-07-29T15:19:04;30.78;31.93
67005;HTU21D;53920;51.094;5.902;2022-07-29T15:21:30;30.85;31.72
67005;HTU21D;53920;51.094;5.902;2022-07-29T15:23:56;30.95;31.46
67005;HTU21D;53920;51.094;5.902;2022-07-29T15:26:22;30.99;31.18
67005;HTU21D;53920;51.094;5.902;2022-07-29T15:28:48;30.94;30.47
67005;HTU21D;53920;51.094;5.902;2022-07-29T15:31:14;30.92;30.93
67005;HTU21D;53920;51.094;5.902;2022-07-29T15:33:40;30.84;30.93
67005;HTU21D;53920;51.094;5.902;2022-07-29T15:36:06;30.77;31.04
67005;HTU21D;53920;51.094;5.902;2022-07-29T15:38:32;30.64;30.64
67005;HTU21D;53920;51.094;5.902;2022-07-29T15:40:58;30.49;31.98
67005;HTU21D;53920;51.094;5.902;2022-07-29T15:43:24;30.56;32.61
67005;HTU21D;53920;51.094;5.902;2022-07-29T15:45:50;30.63;33.07
67005;HTU21D;53920;51.094;5.902;2022-07-29T15:48:38;30.76;32.99
67005;HTU21D;53920;51.094;5.902;2022-07-29T15:51:04;30.65;32.44
67005;HTU21D;53920;51.094;5.902;2022-07-29T15:53:30;30.51;33.37
67005;HTU21D;53920;51.094;5.902;2022-07-29T15:55:56;30.28;32.63
67005;HTU21D;53920;51.094;5.902;2022-07-29T15:58:25;30.07;33.08
67005;HTU21D;53920;51.094;5.902;2022-07-29T16:00:50;29.81;33.22
67005;HTU21D;53920;51.094;5.902;2022-07-29T16:03:16;29.72;34.22
67005;HTU21D;53920;51.094;5.902;2022-07-29T16:05:42;29.67;34.73
67005;HTU21D;53920;51.094;5.902;2022-07-29T16:08:08;29.62;34.37
67005;HTU21D;53920;51.094;5.902;2022-07-29T16:10:34;29.56;34.66
67005;HTU21D;53920;51.094;5.902;2022-07-29T16:13:00;29.39;34.10
67005;HTU21D;53920;51.094;5.902;2022-07-29T16:15:26;29.13;33.63
67005;HTU21D;53920;51.094;5.902;2022-07-29T16:17:52;28.85;33.43
67005;HTU21D;53920;51.094;5.902;2022-07-29T16:20:18;28.69;34.94